createdAt,value
2019-05-21T00:01:34.914Z,14.20
2019-05-21T00:04:05.637Z,14.30
2019-05-21T00:06:35.691Z,14.20
2019-05-21T00:09:06.168Z,14.10
2019-05-21T00:11:35.910Z,14.10
2019-05-21T00:14:05.654Z,14.00
2019-05-21T00:16:35.249Z,14.00
2019-05-21T00:19:04.871Z,14.00
2019-05-21T00:21:34.574Z,14.00
2019-05-21T00:24:04.605Z,14.00
2019-05-21T00:26:34.602Z,14.00
2019-05-21T00:29:40.828Z,14.00
2019-05-21T00:32:47.233Z,14.00
2019-05-21T00:35:53.604Z,13.90
2019-05-21T00:38:59.765Z,14.00
2019-05-21T00:42:01.437Z,13.90
2019-05-21T00:44:37.656Z,13.90
2019-05-21T00:47:07.812Z,13.90
2019-05-21T00:49:37.527Z,13.80
2019-05-21T00:52:09.008Z,13.80
2019-05-21T00:54:38.339Z,13.70
2019-05-21T00:57:08.215Z,13.80
2019-05-21T00:59:37.904Z,13.80
2019-05-21T01:02:07.630Z,13.70
2019-05-21T01:04:37.329Z,13.70
2019-05-21T01:07:06.919Z,13.70
2019-05-21T01:09:36.499Z,13.70
2019-05-21T01:12:06.153Z,13.70
2019-05-21T01:14:35.979Z,13.70
2019-05-21T01:17:05.749Z,13.60
2019-05-21T01:19:35.477Z,13.60
2019-05-21T01:22:05.597Z,13.60
2019-05-21T01:24:35.293Z,13.60
2019-05-21T01:27:04.827Z,13.60
2019-05-21T01:29:35.272Z,13.70
2019-05-21T01:32:07.053Z,13.70
2019-05-21T01:34:36.833Z,13.70
2019-05-21T01:37:06.828Z,13.70
2019-05-21T01:39:36.602Z,13.70
2019-05-21T01:42:06.418Z,13.60
2019-05-21T01:44:36.037Z,13.60
2019-05-21T01:47:05.519Z,13.60
2019-05-21T01:49:35.099Z,13.50
2019-05-21T01:52:04.710Z,13.50
2019-05-21T01:54:35.620Z,13.50
2019-05-21T01:57:05.381Z,13.50
2019-05-21T01:59:35.263Z,13.50
2019-05-21T02:02:04.975Z,13.50
2019-05-21T02:04:34.876Z,13.50
2019-05-21T02:07:07.104Z,13.40
2019-05-21T02:09:38.610Z,13.30
2019-05-21T02:12:10.724Z,13.30
2019-05-21T02:14:39.750Z,13.30
2019-05-21T02:17:15.632Z,13.30
2019-05-21T02:19:45.280Z,13.30
2019-05-21T02:22:15.326Z,13.30
2019-05-21T02:24:45.146Z,13.20
2019-05-21T02:27:14.734Z,13.20
2019-05-21T02:29:44.556Z,13.20
2019-05-21T02:32:14.166Z,13.10
2019-05-21T02:34:43.797Z,13.10
2019-05-21T02:37:13.493Z,13.00
2019-05-21T02:39:43.023Z,12.90
2019-05-21T02:42:12.614Z,12.90
2019-05-21T02:44:42.415Z,12.80
2019-05-21T02:47:12.021Z,12.80
2019-05-21T02:49:41.428Z,12.80
2019-05-21T02:52:10.939Z,12.80
2019-05-21T02:54:42.386Z,12.70
2019-05-21T02:57:11.812Z,12.60
2019-05-21T02:59:43.229Z,12.50
2019-05-21T03:02:30.733Z,12.50
2019-05-21T03:05:00.439Z,12.40
2019-05-21T03:07:29.966Z,12.40
2019-05-21T03:09:59.776Z,12.40
2019-05-21T03:12:29.481Z,12.40
2019-05-21T03:14:59.053Z,12.40
2019-05-21T03:17:28.991Z,12.40
2019-05-21T03:19:58.598Z,12.50
2019-05-21T03:22:28.248Z,12.60
2019-05-21T03:25:02.053Z,12.70
2019-05-21T03:27:29.215Z,12.60
2019-05-21T03:29:58.818Z,12.60
2019-05-21T03:32:28.619Z,12.70
2019-05-21T03:34:58.630Z,12.70
2019-05-21T03:37:28.472Z,12.70
2019-05-21T03:39:58.272Z,12.80
2019-05-21T03:42:27.967Z,12.90
2019-05-21T03:45:00.536Z,12.90
2019-05-21T03:47:29.435Z,13.00
2019-05-21T03:49:59.046Z,13.00
2019-05-21T03:52:29.047Z,13.10
2019-05-21T03:55:02.792Z,13.10
2019-05-21T03:57:30.038Z,13.10
2019-05-21T03:59:59.572Z,13.10
2019-05-21T04:02:29.253Z,13.10
2019-05-21T04:04:58.922Z,13.00
2019-05-21T04:07:29.178Z,13.00
2019-05-21T04:09:58.774Z,15.10
2019-05-21T04:12:28.703Z,13.00
2019-05-21T04:15:02.815Z,13.10
2019-05-21T04:17:34.976Z,13.10
2019-05-21T04:20:08.376Z,13.10
2019-05-21T04:22:39.794Z,13.10
2019-05-21T04:25:09.937Z,13.20
2019-05-21T04:27:39.678Z,13.30
2019-05-21T04:30:11.286Z,13.40
2019-05-21T04:32:41.960Z,13.50
2019-05-21T04:35:11.638Z,13.60
2019-05-21T04:37:44.166Z,13.70
2019-05-21T04:40:13.746Z,13.70
2019-05-21T04:42:43.677Z,13.80
2019-05-21T04:45:13.196Z,13.70
2019-05-21T04:47:42.875Z,13.70
2019-05-21T04:50:12.570Z,13.70
2019-05-21T04:52:42.228Z,13.80
2019-05-21T04:55:11.855Z,13.90
2019-05-21T04:57:41.710Z,13.90
2019-05-21T05:00:13.156Z,14.00
2019-05-21T05:02:43.195Z,14.00
2019-05-21T05:05:12.744Z,14.10
2019-05-21T05:07:43.688Z,14.20
2019-05-21T05:10:13.763Z,14.30
2019-05-21T05:12:43.646Z,14.40
2019-05-21T05:15:13.123Z,14.50
2019-05-21T05:17:42.729Z,14.60
2019-05-21T05:20:12.205Z,14.70
2019-05-21T05:22:41.864Z,14.80
2019-05-21T05:25:11.378Z,14.90
2019-05-21T05:27:40.785Z,14.90
2019-05-21T05:30:10.857Z,15.00
2019-05-21T05:32:42.379Z,15.00
2019-05-21T05:35:12.118Z,15.00
2019-05-21T05:37:45.273Z,15.00
2019-05-21T05:40:13.749Z,15.10
2019-05-21T05:42:43.955Z,15.20
2019-05-21T05:45:14.313Z,15.30
2019-05-21T05:47:43.988Z,15.30
2019-05-21T05:50:17.956Z,15.30
2019-05-21T05:52:47.733Z,15.50
2019-05-21T05:55:17.434Z,15.50
2019-05-21T05:57:47.124Z,15.50
2019-05-21T06:00:17.048Z,15.70
2019-05-21T06:02:47.185Z,15.80
2019-05-21T06:05:16.783Z,15.80
2019-05-21T06:07:58.747Z,15.80
2019-05-21T06:10:17.933Z,16.00
2019-05-21T06:12:48.035Z,16.30
2019-05-21T06:15:17.627Z,16.30
2019-05-21T06:17:49.245Z,16.30
2019-05-21T06:20:18.897Z,16.50
2019-05-21T06:22:48.445Z,16.80
2019-05-21T06:25:18.510Z,17.00
2019-05-21T06:27:48.538Z,17.10
2019-05-21T06:30:18.558Z,17.30
2019-05-21T06:32:48.279Z,17.40
2019-05-21T06:35:17.877Z,17.50
2019-05-21T06:37:47.453Z,17.40
2019-05-21T06:40:16.949Z,17.70
2019-05-21T06:42:46.320Z,18.10
2019-05-21T06:45:15.831Z,18.50
2019-05-21T06:47:45.359Z,18.60
2019-05-21T06:50:15.323Z,18.80
2019-05-21T06:52:44.907Z,19.10
2019-05-21T06:55:14.393Z,19.30
2019-05-21T06:57:43.907Z,19.40
2019-05-21T07:00:13.687Z,19.50
2019-05-21T07:02:43.117Z,19.50
2019-05-21T07:05:14.139Z,19.50
2019-05-21T07:07:43.605Z,19.50
2019-05-21T07:10:13.230Z,19.60
2019-05-21T07:12:42.722Z,19.40
2019-05-21T07:15:12.345Z,19.30
2019-05-21T07:17:41.801Z,19.30
2019-05-21T07:20:11.455Z,19.30
2019-05-21T07:22:41.126Z,19.40
2019-05-21T07:25:10.751Z,19.50
2019-05-21T07:27:40.447Z,19.60
2019-05-21T07:30:10.620Z,19.90
2019-05-21T07:32:40.387Z,20.20
2019-05-21T07:35:10.005Z,20.20
2019-05-21T07:37:39.593Z,20.30
2019-05-21T07:40:09.008Z,20.30
2019-05-21T07:42:38.630Z,20.20
2019-05-21T07:45:08.011Z,20.20
2019-05-21T07:47:37.603Z,20.10
2019-05-21T07:50:07.209Z,20.40
2019-05-21T07:52:36.753Z,20.60
2019-05-21T07:55:06.294Z,21.10
2019-05-21T07:57:35.875Z,21.80
2019-05-21T08:00:06.147Z,22.10
2019-05-21T08:02:35.689Z,22.40
2019-05-21T08:05:05.898Z,22.50
2019-05-21T08:07:37.090Z,22.90
2019-05-21T08:10:07.833Z,23.10
2019-05-21T08:12:39.717Z,23.60
2019-05-21T08:15:08.812Z,23.80
2019-05-21T08:17:38.265Z,24.10
2019-05-21T08:20:10.562Z,24.40
2019-05-21T08:22:40.685Z,24.70
2019-05-21T08:25:14.153Z,25.70
2019-05-21T08:27:42.151Z,26.30
2019-05-21T08:30:11.456Z,26.80
2019-05-21T08:32:41.036Z,26.50
2019-05-21T08:35:10.538Z,26.40
2019-05-21T08:37:40.027Z,26.00
2019-05-21T08:40:09.688Z,26.50
2019-05-21T08:42:39.365Z,26.80
2019-05-21T08:45:09.056Z,27.60
2019-05-21T08:47:38.807Z,26.50
2019-05-21T08:50:08.758Z,26.40
2019-05-21T08:52:38.589Z,26.40
2019-05-21T08:55:08.553Z,26.10
2019-05-21T08:57:38.397Z,25.60
2019-05-21T09:00:11.389Z,25.70
2019-05-21T09:02:40.826Z,25.90
2019-05-21T09:05:10.353Z,26.30
2019-05-21T09:07:40.252Z,27.20
2019-05-21T09:10:09.638Z,27.90
2019-05-21T09:12:39.290Z,28.60
2019-05-21T09:15:08.926Z,28.70
2019-05-21T09:17:38.809Z,28.70
2019-05-21T09:20:09.374Z,28.80
2019-05-21T09:22:38.989Z,28.80
2019-05-21T09:25:08.705Z,28.80
2019-05-21T09:27:38.511Z,28.80
2019-05-21T09:30:09.766Z,27.80
2019-05-21T09:32:39.471Z,27.00
2019-05-21T09:35:08.775Z,26.40
2019-05-21T09:37:38.810Z,26.10
2019-05-21T09:40:09.568Z,25.90
2019-05-21T09:42:39.549Z,25.80
2019-05-21T09:45:09.180Z,26.10
2019-05-21T09:47:39.209Z,26.40
2019-05-21T09:50:08.909Z,26.90
2019-05-21T09:52:39.687Z,26.80
2019-05-21T09:55:09.263Z,26.90
2019-05-21T09:57:57.909Z,27.30
2019-05-21T10:00:34.842Z,27.80
2019-05-21T10:03:05.994Z,27.80
2019-05-21T10:05:35.589Z,27.80
2019-05-21T10:08:05.269Z,27.50
2019-05-21T10:10:35.062Z,27.40
2019-05-21T10:13:04.650Z,27.70
2019-05-21T10:15:34.100Z,27.90
2019-05-21T10:18:03.558Z,28.50
2019-05-21T10:20:32.877Z,28.70
2019-05-21T10:23:02.469Z,28.90
2019-05-21T10:25:32.016Z,29.30
2019-05-21T10:28:01.382Z,29.80
2019-05-21T10:30:30.827Z,30.00
2019-05-21T10:33:00.763Z,30.20
2019-05-21T10:35:30.061Z,30.20
2019-05-21T10:37:59.456Z,30.40
2019-05-21T10:40:29.178Z,29.90
2019-05-21T10:42:58.654Z,29.10
2019-05-21T10:45:28.029Z,28.30
2019-05-21T10:47:57.517Z,27.90
2019-05-21T10:50:27.050Z,27.80
2019-05-21T10:52:56.505Z,27.40
2019-05-21T10:55:25.921Z,27.30
2019-05-21T10:57:55.556Z,27.30
2019-05-21T11:00:25.722Z,26.90
2019-05-21T11:03:08.889Z,26.50
2019-05-21T11:05:39.970Z,25.50
2019-05-21T11:08:25.510Z,24.70
2019-05-21T11:10:40.688Z,24.20
2019-05-21T11:13:10.348Z,24.30
2019-05-21T11:15:39.868Z,24.20
2019-05-21T11:18:11.393Z,23.80
2019-05-21T11:20:41.144Z,23.90
2019-05-21T11:23:10.783Z,24.10
2019-05-21T11:25:40.383Z,24.20
2019-05-21T11:28:09.996Z,24.10
2019-05-21T11:30:39.978Z,24.00
2019-05-21T11:33:09.490Z,23.70
2019-05-21T11:35:39.143Z,24.10
2019-05-21T11:38:08.815Z,24.20
2019-05-21T11:40:38.380Z,24.50
2019-05-21T11:43:12.280Z,24.80
2019-05-21T11:45:41.797Z,24.70
2019-05-21T11:48:12.342Z,24.90
2019-05-21T11:50:42.959Z,25.20
2019-05-21T11:53:12.805Z,25.60
2019-05-21T11:55:42.301Z,26.10
2019-05-21T11:58:11.867Z,26.60
2019-05-21T12:00:41.639Z,27.20
2019-05-21T12:03:11.371Z,27.60
2019-05-21T12:05:41.079Z,27.80
2019-05-21T12:08:12.593Z,27.70
2019-05-21T12:10:42.499Z,27.90
2019-05-21T12:13:12.218Z,27.80
2019-05-21T12:15:42.797Z,27.50
2019-05-21T12:18:12.366Z,27.20
2019-05-21T12:20:41.984Z,27.20
2019-05-21T12:23:11.666Z,27.10
2019-05-21T12:25:41.298Z,26.70
2019-05-21T12:28:11.488Z,26.50
2019-05-21T12:30:41.267Z,26.20
2019-05-21T12:33:10.792Z,26.20
2019-05-21T12:35:40.932Z,25.80
2019-05-21T12:38:10.898Z,25.10
2019-05-21T12:40:40.423Z,25.00
2019-05-21T12:43:11.196Z,25.20
2019-05-21T12:45:41.086Z,25.50
2019-05-21T12:48:11.275Z,25.90
2019-05-21T12:50:40.954Z,26.20
2019-05-21T12:53:10.685Z,26.30
2019-05-21T12:55:40.609Z,26.30
2019-05-21T12:58:10.724Z,26.30
2019-05-21T13:00:40.243Z,26.10
2019-05-21T13:03:09.838Z,26.00
2019-05-21T13:05:39.677Z,25.90
2019-05-21T13:08:09.529Z,25.90
2019-05-21T13:10:39.143Z,25.70
2019-05-21T13:13:08.791Z,25.70
2019-05-21T13:15:38.705Z,25.50
2019-05-21T13:18:09.046Z,25.50
2019-05-21T13:20:38.987Z,25.60
2019-05-21T13:23:08.721Z,25.50
2019-05-21T13:25:38.472Z,25.60
2019-05-21T13:28:08.114Z,25.70
2019-05-21T13:30:37.999Z,25.60
2019-05-21T13:33:07.810Z,25.40
2019-05-21T13:35:37.351Z,24.40
2019-05-21T13:38:06.856Z,24.50
2019-05-21T13:40:37.330Z,25.00
2019-05-21T13:43:07.027Z,25.10
2019-05-21T13:45:36.862Z,25.00
2019-05-21T13:48:06.889Z,25.40
2019-05-21T13:50:36.817Z,25.90
2019-05-21T13:53:06.556Z,26.40
2019-05-21T13:55:36.316Z,26.60
2019-05-21T13:58:06.021Z,26.30
2019-05-21T14:00:49.349Z,26.10
2019-05-21T14:03:18.855Z,26.70
2019-05-21T14:05:48.668Z,27.30
2019-05-21T14:08:18.590Z,28.00
2019-05-21T14:10:48.107Z,28.30
2019-05-21T14:13:18.100Z,28.60
2019-05-21T14:15:47.725Z,28.70
2019-05-21T14:18:17.358Z,28.90
2019-05-21T14:20:46.969Z,29.10
2019-05-21T14:23:16.816Z,29.40
2019-05-21T14:25:46.302Z,29.60
2019-05-21T14:28:15.803Z,29.60
2019-05-21T14:30:45.475Z,29.20
2019-05-21T14:33:15.169Z,28.80
2019-05-21T14:35:44.476Z,28.20
2019-05-21T14:38:13.973Z,28.10
2019-05-21T14:40:43.651Z,28.10
2019-05-21T14:43:13.292Z,28.20
2019-05-21T14:45:42.754Z,27.90
2019-05-21T14:48:12.362Z,27.90
2019-05-21T14:50:42.017Z,27.90
2019-05-21T14:53:11.840Z,27.80
2019-05-21T14:55:41.430Z,27.50
2019-05-21T14:58:11.453Z,26.80
2019-05-21T15:00:42.071Z,27.00
2019-05-21T15:03:24.740Z,26.90
2019-05-21T15:05:43.865Z,26.70
2019-05-21T15:08:13.566Z,26.50
2019-05-21T15:10:48.515Z,26.30
2019-05-21T15:13:14.316Z,26.20
2019-05-21T15:15:43.947Z,26.40
2019-05-21T15:18:20.734Z,26.80
2019-05-21T15:20:55.849Z,26.80
2019-05-21T15:23:27.121Z,26.60
2019-05-21T15:25:56.731Z,26.30
2019-05-21T15:28:26.524Z,26.60
2019-05-21T15:30:56.427Z,26.70
2019-05-21T15:33:26.245Z,26.60
2019-05-21T15:35:56.187Z,26.30
2019-05-21T15:38:26.783Z,26.00
2019-05-21T15:41:09.534Z,25.80
2019-05-21T15:43:29.387Z,25.70
2019-05-21T15:45:59.245Z,25.50
2019-05-21T15:48:29.001Z,25.50
2019-05-21T15:50:58.853Z,25.40
2019-05-21T15:53:28.419Z,25.40
2019-05-21T15:55:57.976Z,25.60
2019-05-21T15:58:27.673Z,25.90
2019-05-21T16:00:57.367Z,26.10
2019-05-21T16:03:26.963Z,26.20
2019-05-21T16:05:56.771Z,26.20
2019-05-21T16:08:28.032Z,26.00
2019-05-21T16:10:58.348Z,25.70
2019-05-21T16:13:27.889Z,25.40
2019-05-21T16:15:57.264Z,25.10
2019-05-21T16:18:26.937Z,24.80
2019-05-21T16:20:57.877Z,24.30
2019-05-21T16:23:27.352Z,23.70
2019-05-21T16:25:57.215Z,23.20
2019-05-21T16:28:27.823Z,22.70
2019-05-21T16:30:57.710Z,22.00
2019-05-21T16:33:27.513Z,21.30
2019-05-21T16:35:58.316Z,21.00
2019-05-21T16:38:27.917Z,20.70
2019-05-21T16:40:57.816Z,20.50
2019-05-21T16:43:27.387Z,20.40
2019-05-21T16:45:57.130Z,20.40
2019-05-21T16:48:26.967Z,20.40
2019-05-21T16:50:56.853Z,20.40
2019-05-21T16:53:26.690Z,20.40
2019-05-21T16:55:56.804Z,20.40
2019-05-21T16:58:26.348Z,20.40
2019-05-21T17:00:55.958Z,20.30
2019-05-21T17:03:26.022Z,20.20
2019-05-21T17:05:55.816Z,20.10
2019-05-21T17:08:25.491Z,20.10
2019-05-21T17:10:55.034Z,20.00
2019-05-21T17:13:24.655Z,20.00
2019-05-21T17:15:54.384Z,19.90
2019-05-21T17:18:23.894Z,19.90
2019-05-21T17:20:53.468Z,19.80
2019-05-21T17:23:22.970Z,19.70
2019-05-21T17:25:52.824Z,19.70
2019-05-21T17:28:22.264Z,19.60
2019-05-21T17:30:52.242Z,19.60
2019-05-21T17:33:22.018Z,19.60
2019-05-21T17:35:51.742Z,19.60
2019-05-21T17:38:24.410Z,19.60
2019-05-21T17:40:53.074Z,19.50
2019-05-21T17:43:22.783Z,19.50
2019-05-21T17:45:52.743Z,19.40
2019-05-21T17:48:22.495Z,19.20
2019-05-21T17:50:52.390Z,19.10
2019-05-21T17:53:22.395Z,18.90
2019-05-21T17:55:52.206Z,18.80
2019-05-21T17:58:21.896Z,18.70
2019-05-21T18:00:55.631Z,18.70
2019-05-21T18:03:25.886Z,18.70
2019-05-21T18:05:56.318Z,18.70
2019-05-21T18:08:26.387Z,18.60
2019-05-21T18:10:56.623Z,18.50
2019-05-21T18:13:27.323Z,18.20
2019-05-21T18:15:58.079Z,18.10
2019-05-21T18:18:28.133Z,17.90
2019-05-21T18:20:57.741Z,17.90
2019-05-21T18:23:28.145Z,18.00
2019-05-21T18:25:57.996Z,17.90
2019-05-21T18:28:27.721Z,17.90
2019-05-21T18:30:57.326Z,17.90
2019-05-21T18:33:27.441Z,17.90
2019-05-21T18:35:57.931Z,17.80
2019-05-21T18:38:27.675Z,17.80
2019-05-21T18:40:57.322Z,17.90
2019-05-21T18:43:27.238Z,17.70
2019-05-21T18:45:56.867Z,17.70
2019-05-21T18:48:26.804Z,17.60
2019-05-21T18:50:56.587Z,17.60
2019-05-21T18:53:26.231Z,17.60
2019-05-21T18:55:55.759Z,17.60
2019-05-21T18:58:25.462Z,17.70
2019-05-21T19:00:55.006Z,17.70
2019-05-21T19:03:25.856Z,17.70
2019-05-21T19:05:55.815Z,17.80
2019-05-21T19:08:26.608Z,17.80
2019-05-21T19:10:56.512Z,17.90
2019-05-21T19:13:26.670Z,17.90
2019-05-21T19:15:57.067Z,18.00
2019-05-21T19:18:26.810Z,18.10
2019-05-21T19:20:56.566Z,18.10
2019-05-21T19:23:26.304Z,18.20
2019-05-21T19:25:55.835Z,18.20
2019-05-21T19:28:25.709Z,18.20
2019-05-21T19:30:56.016Z,18.30
2019-05-21T19:33:25.728Z,18.30
2019-05-21T19:35:58.430Z,18.30
2019-05-21T19:38:27.993Z,18.30
2019-05-21T19:40:57.728Z,18.20
2019-05-21T19:43:27.403Z,18.10
2019-05-21T19:45:57.065Z,18.00
2019-05-21T19:48:37.982Z,17.70
2019-05-21T19:51:07.651Z,17.50
2019-05-21T19:53:37.317Z,17.40
2019-05-21T19:56:07.364Z,17.30
2019-05-21T19:58:37.005Z,17.20
2019-05-21T20:01:06.598Z,17.20
2019-05-21T20:03:36.743Z,17.20
2019-05-21T20:06:06.947Z,17.10
2019-05-21T20:08:37.121Z,17.10
2019-05-21T20:11:07.534Z,17.10
2019-05-21T20:13:37.430Z,16.90
2019-05-21T20:16:08.205Z,16.90
2019-05-21T20:18:37.914Z,16.90
2019-05-21T20:21:09.066Z,16.80
2019-05-21T20:23:38.881Z,16.80
2019-05-21T20:26:10.750Z,16.80
2019-05-21T20:28:40.482Z,16.70
2019-05-21T20:31:10.205Z,16.70
2019-05-21T20:33:40.398Z,16.60
2019-05-21T20:36:11.090Z,16.40
2019-05-21T20:38:41.186Z,16.40
2019-05-21T20:41:11.254Z,16.30
2019-05-21T20:43:41.188Z,16.30
2019-05-21T20:46:11.036Z,16.30
2019-05-21T20:48:40.857Z,16.20
2019-05-21T20:51:10.516Z,16.20
2019-05-21T20:53:39.954Z,16.30
2019-05-21T20:56:10.102Z,16.30
2019-05-21T20:58:39.995Z,16.30
2019-05-21T21:01:09.665Z,16.30
2019-05-21T21:03:40.807Z,16.30
2019-05-21T21:06:10.961Z,16.40
2019-05-21T21:08:40.436Z,16.40
2019-05-21T21:11:11.208Z,16.40
2019-05-21T21:13:41.473Z,16.40
2019-05-21T21:16:11.544Z,16.30
2019-05-21T21:18:41.187Z,16.10
2019-05-21T21:21:10.677Z,16.10
2019-05-21T21:23:41.765Z,15.90
2019-05-21T21:26:12.412Z,15.80
2019-05-21T21:28:42.254Z,15.70
2019-05-21T21:31:11.752Z,15.50
2019-05-21T21:33:41.299Z,15.50
2019-05-21T21:36:11.262Z,15.50
2019-05-21T21:38:40.674Z,15.60
2019-05-21T21:41:14.038Z,15.50
2019-05-21T21:43:43.742Z,15.50
2019-05-21T21:46:17.390Z,15.30
2019-05-21T21:48:47.207Z,15.30
2019-05-21T21:51:18.200Z,15.30
2019-05-21T21:53:48.940Z,15.20
2019-05-21T21:56:18.818Z,15.30
2019-05-21T21:58:48.352Z,15.30
2019-05-21T22:01:37.145Z,15.30
2019-05-21T22:04:08.594Z,15.20
2019-05-21T22:06:38.914Z,15.20
2019-05-21T22:09:10.320Z,15.20
2019-05-21T22:11:40.563Z,15.20
2019-05-21T22:14:10.440Z,15.30
2019-05-21T22:16:40.176Z,15.30
2019-05-21T22:19:10.512Z,15.30
2019-05-21T22:21:40.353Z,15.30
2019-05-21T22:24:10.224Z,15.30
2019-05-21T22:26:39.745Z,15.30
2019-05-21T22:29:10.821Z,15.40
2019-05-21T22:31:41.527Z,15.30
2019-05-21T22:34:11.086Z,15.30
2019-05-21T22:36:41.946Z,15.30
2019-05-21T22:39:13.158Z,15.30
2019-05-21T22:41:42.905Z,15.30
2019-05-21T22:44:12.666Z,15.30
2019-05-21T22:46:42.358Z,15.30
2019-05-21T22:49:12.035Z,15.30
2019-05-21T22:51:41.585Z,15.30
2019-05-21T22:54:11.356Z,15.30
2019-05-21T22:56:40.866Z,15.30
2019-05-21T22:59:10.429Z,15.30
2019-05-21T23:01:40.272Z,15.30
2019-05-21T23:04:09.904Z,15.30
2019-05-21T23:06:39.456Z,15.40
2019-05-21T23:09:09.303Z,15.40
2019-05-21T23:11:38.923Z,15.40
2019-05-21T23:14:08.442Z,15.40
2019-05-21T23:16:38.990Z,15.50
2019-05-21T23:19:25.414Z,15.40
2019-05-21T23:21:59.484Z,15.40
2019-05-21T23:24:29.854Z,15.40
2019-05-21T23:26:59.611Z,15.40
2019-05-21T23:29:29.322Z,15.40
2019-05-21T23:31:59.650Z,15.40
2019-05-21T23:34:29.428Z,15.40
2019-05-21T23:36:59.161Z,15.40
2019-05-21T23:39:28.620Z,15.30
2019-05-21T23:41:58.110Z,15.30
2019-05-21T23:44:27.759Z,15.20
2019-05-21T23:46:58.725Z,15.20
2019-05-21T23:49:28.339Z,15.20
2019-05-21T23:51:58.054Z,15.20
2019-05-21T23:54:27.617Z,15.20
2019-05-21T23:56:58.042Z,15.20
2019-05-21T23:59:28.007Z,15.30
